Seas 11 — A8ZT4 — position and weather

sailwx.info

Track history (hours):
 
Tides and Currents Weather Stations Pressure Air Temp Water Temp Dewpoint Dewpoint Depression Visibility Wind Speed Wind Dir Waves Ship Positions

Seas 11

Last reported at 2018-Jun-18 01:18 UTC. Time now 2018-Jun-20 15:19 UTC.
Position N 56°31' E 020°46'.

Length 190 m; draft 7.3 m.

Type: Cargo ship. MMSI: 636015294.

Date/timePositionNaut miles runAvg speedWind from/ knotsBaromVisibWave heightAir tempDewpointWater temp
2018-Jun-18 01:18N 56°31' E 020°46'0 0.0
2018-Jun-18 00:54N 56°31' E 020°46'0 0.0
2018-Jun-17 07:06N 56°31' E 020°46'0 0.1
2018-Jun-17 04:57N 56°31' E 020°46'0 0.0
2018-Jun-17 03:27N 56°31' E 020°46'0 0.0
2018-Jun-17 02:57N 56°31' E 020°46'0 0.0
2018-Jun-17 02:27N 56°31' E 020°46'0 0.0
2018-Jun-15 14:00N 56°31' E 020°46'0 0.0
2018-Jun-15 13:12N 56°31' E 020°46'0 0.0
2018-Jun-15 13:00N 56°31' E 020°46'0 0.0
2018-Jun-15 12:30N 56°31' E 020°46'0 0.0
2018-Jun-15 10:06N 56°31' E 020°46'0 0.0
2018-Jun-15 09:45N 56°31' E 020°46'92 2.7
2018-Jun-13 23:30N 55°07' E 019°40'1712.3
2018-Jun-13 22:08N 54°51' E 019°38'212.9
2018-Jun-13 21:58N 54°48' E 019°38'4 5.1
2018-Jun-13 21:11N 54°45' E 019°33'0 0.5
2018-Jun-13 20:59N 54°45' E 019°33'0 0.4
2018-Jun-13 20:30N 54°45' E 019°33'0 0.4
2018-Jun-13 20:01N 54°45' E 019°32'1 1.5
2018-Jun-13 19:30N 54°45' E 019°31'2 4.4
2018-Jun-13 19:01N 54°46' E 019°28'3 5.0
2018-Jun-13 18:30N 54°48' E 019°24'2 4.3
2018-Jun-13 18:00N 54°49' E 019°21'2 4.7
2018-Jun-13 17:30N 54°48' E 019°25'3 5.7
2018-Jun-13 17:00N 54°47' E 019°29'3 5.6
2018-Jun-13 16:30N 54°44' E 019°32'1 1.7
2018-Jun-13 15:56N 54°44' E 019°33'0 0.5
2018-Jun-13 15:29N 54°45' E 019°33'0 0.5
2018-Jun-13 15:00N 54°45' E 019°33'0 0.9
2018-Jun-13 14:30N 54°45' E 019°34'2 3.5
2018-Jun-13 14:00N 54°45' E 019°37'3 7.0
2018-Jun-13 13:30N 54°43' E 019°42'610.9
2018-Jun-13 13:00N 54°40' E 019°50'3 6.8
2018-Jun-13 12:30N 54°38' E 019°55'3 6.1
2018-Jun-13 11:59N 54°38' E 020°01'7 5.9
2018-Jun-13 10:45N 54°41' E 020°12'0 0.4
2018-Jun-13 10:28N 54°41' E 020°12'0 0.0
2018-Jun-11 18:10N 54°41' E 020°12'0 0.0
2018-Jun-11 05:16N 54°41' E 020°12'0 0.0
2018-Jun-11 04:58N 54°41' E 020°12'0 0.0
2018-Jun-11 04:28N 54°41' E 020°12'0 0.0
2018-Jun-11 03:37N 54°41' E 020°12'0 0.0
2018-Jun-11 03:10N 54°41' E 020°12'0 0.0
2018-Jun-11 02:43N 54°41' E 020°12'0 0.0
2018-Jun-11 02:28N 54°41' E 020°12'0 0.0
2018-Jun-11 01:58N 54°41' E 020°12'0 0.0
2018-Jun-11 01:25N 54°41' E 020°12'0 0.0
2018-Jun-11 00:22N 54°41' E 020°12'0 0.0
2018-Jun-10 23:58N 54°41' E 020°12'0 0.0
2018-Jun-10 23:19N 54°41' E 020°12'0 0.0
2018-Jun-10 22:58N 54°41' E 020°12'0 0.0
2018-Jun-10 20:10N 54°41' E 020°12'0 0.0
2018-Jun-10 19:58N 54°41' E 020°12'0 0.0
2018-Jun-10 19:28N 54°41' E 020°12'0 0.0
2018-Jun-10 18:52N 54°41' E 020°12'0 0.0
2018-Jun-10 18:28N 54°41' E 020°12'0 0.0
2018-Jun-10 17:58N 54°41' E 020°12'0 0.0
2018-Jun-10 17:28N 54°41' E 020°12'0 0.0
2018-Jun-10 16:55N 54°41' E 020°12'0 0.0
2018-Jun-10 16:28N 54°41' E 020°12'0 0.0
2018-Jun-10 15:58N 54°41' E 020°12'0 0.0
2018-Jun-10 11:01N 54°41' E 020°12'0 0.0
2018-Jun-10 10:49N 54°41' E 020°12'0 0.0
2018-Jun-10 10:22N 54°41' E 020°12'0 0.0
2018-Jun-10 09:58N 54°41' E 020°12'0 0.0
2018-Jun-10 09:25N 54°41' E 020°12'0 0.0
2018-Jun-10 08:55N 54°41' E 020°12'0 0.0
2018-Jun-10 08:28N 54°41' E 020°12'0 0.0
2018-Jun-10 07:58N 54°41' E 020°12'0 0.0
2018-Jun-10 06:16N 54°41' E 020°12'0 0.0
2018-Jun-10 05:58N 54°41' E 020°12'0 0.0
2018-Jun-10 05:22N 54°41' E 020°12'0 0.0
2018-Jun-10 04:58N 54°41' E 020°12'0 0.0
2018-Jun-10 04:28N 54°41' E 020°12'0 0.0
2018-Jun-10 03:52N 54°41' E 020°12'0 0.0
2018-Jun-10 02:13N 54°41' E 020°12'0 0.0
2018-Jun-10 01:58N 54°41' E 020°12'0 0.0
2018-Jun-10 01:25N 54°41' E 020°12'0 0.0
2018-Jun-10 00:52N 54°41' E 020°12'0 0.0
2018-Jun-10 00:28N 54°41' E 020°12'0 0.0
2018-Jun-09 23:58N 54°41' E 020°12'0 0.0
2018-Jun-09 23:25N 54°41' E 020°12'0 0.0
2018-Jun-09 22:58N 54°41' E 020°12'0 0.0
2018-Jun-09 22:28N 54°41' E 020°12'0 0.0
2018-Jun-09 21:58N 54°41' E 020°12'0 0.0
2018-Jun-09 21:28N 54°41' E 020°12'0 0.0
2018-Jun-09 20:58N 54°41' E 020°12'0 0.0
2018-Jun-09 20:28N 54°41' E 020°12'0 0.0
2018-Jun-09 19:37N 54°41' E 020°12'0 0.0
2018-Jun-09 19:22N 54°41' E 020°12'0 0.0
2018-Jun-09 17:16N 54°41' E 020°12'0 0.0
2018-Jun-09 16:19N 54°41' E 020°12'0 0.0
2018-Jun-09 15:58N 54°41' E 020°12'0 0.0
2018-Jun-09 14:22N 54°41' E 020°12'0 0.0
2018-Jun-09 13:58N 54°41' E 020°12'0 0.0
2018-Jun-09 13:28N 54°41' E 020°12'0 0.0
2018-Jun-09 12:52N 54°41' E 020°12'0 0.0
2018-Jun-09 12:25N 54°41' E 020°12'0 0.0
2018-Jun-09 11:58N 54°41' E 020°12'0 0.0
2018-Jun-09 11:28N 54°41' E 020°12'0 0.0
2018-Jun-09 10:52N 54°41' E 020°12'0 0.0
2018-Jun-09 10:28N 54°41' E 020°12'0 0.1
2018-Jun-09 09:58N 54°41' E 020°12'0 0.3
2018-Jun-09 09:28N 54°41' E 020°12'0 0.2
2018-Jun-09 08:58N 54°41' E 020°12'0 0.0
2018-Jun-09 08:22N 54°41' E 020°12'0 0.0
2018-Jun-09 07:58N 54°41' E 020°12'0 0.0
2018-Jun-09 07:25N 54°41' E 020°12'0 0.0
2018-Jun-09 06:58N 54°41' E 020°12'0 0.0
2018-Jun-09 06:28N 54°41' E 020°12'0 0.0
2018-Jun-09 05:58N 54°41' E 020°12'0 0.0
2018-Jun-09 05:28N 54°41' E 020°12'0 0.0
2018-Jun-09 04:58N 54°41' E 020°12'0 0.0
2018-Jun-09 04:28N 54°41' E 020°12'0 0.0
2018-Jun-09 03:58N 54°41' E 020°12'0 0.0
2018-Jun-09 03:28N 54°41' E 020°12'0 0.0
2018-Jun-09 02:58N 54°41' E 020°12'0 0.0
2018-Jun-09 02:28N 54°41' E 020°12'0 0.0
2018-Jun-09 01:55N 54°41' E 020°12'0 0.0
2018-Jun-09 01:28N 54°41' E 020°12'0 0.0
2018-Jun-09 00:58N 54°41' E 020°12'0 0.0
2018-Jun-09 00:25N 54°41' E 020°12'0 0.0
2018-Jun-08 23:58N 54°41' E 020°12'0 0.0
2018-Jun-08 23:28N 54°41' E 020°12'0 0.0
2018-Jun-08 21:37N 54°41' E 020°12'0 0.0
2018-Jun-08 21:28N 54°41' E 020°12'0 0.0
2018-Jun-08 20:49N 54°41' E 020°12'0 0.0
2018-Jun-08 20:28N 54°41' E 020°12'0 0.0
2018-Jun-08 19:52N 54°41' E 020°12'0 0.0
2018-Jun-08 19:28N 54°41' E 020°12'0 0.0
2018-Jun-08 18:55N 54°41' E 020°12'0 0.0
2018-Jun-08 18:28N 54°41' E 020°12'0 0.0
2018-Jun-08 17:37N 54°41' E 020°12'0 0.0
2018-Jun-08 17:10N 54°41' E 020°12'0 0.0
2018-Jun-08 16:52N 54°41' E 020°12'0 0.0
2018-Jun-08 16:07N 54°41' E 020°12'0 0.0
2018-Jun-08 06:49N 54°41' E 020°12'0 0.0
2018-Jun-08 06:28N 54°41' E 020°12'0 0.0
2018-Jun-08 05:58N 54°41' E 020°12'0 0.0
2018-Jun-08 05:28N 54°41' E 020°12'0 0.0
2018-Jun-08 04:58N 54°41' E 020°12'0 0.0
2018-Jun-08 04:28N 54°41' E 020°12'0 0.0
2018-Jun-08 03:58N 54°41' E 020°12'0 0.0
2018-Jun-08 03:28N 54°41' E 020°12'0 0.0
2018-Jun-08 02:55N 54°41' E 020°12'0 0.0
2018-Jun-08 02:28N 54°41' E 020°12'0 0.0
2018-Jun-08 01:55N 54°41' E 020°12'0 0.0
2018-Jun-08 01:28N 54°41' E 020°12'  
Track history (hours):
 
Tides and Currents Weather Stations Pressure Air Temp Water Temp Dewpoint Dewpoint Depression Visibility Wind Speed Wind Dir Waves Ship Positions

Seas 11

Last reported at 2018-Jun-18 01:18 UTC. Time now 2018-Jun-20 15:19 UTC.
Position N 56°31' E 020°46'.

Length 190 m; draft 7.3 m.

Type: Cargo ship. MMSI: 636015294.

Date/timePositionNaut miles runAvg speedWind from/ knotsBaromVisibWave heightAir tempDewpointWater temp
2018-Jun-18 01:18N 56°31' E 020°46'0 0.0
2018-Jun-18 00:54N 56°31' E 020°46'0 0.0
2018-Jun-17 07:06N 56°31' E 020°46'0 0.1
2018-Jun-17 04:57N 56°31' E 020°46'0 0.0
2018-Jun-17 03:27N 56°31' E 020°46'0 0.0
2018-Jun-17 02:57N 56°31' E 020°46'0 0.0
2018-Jun-17 02:27N 56°31' E 020°46'0 0.0
2018-Jun-15 14:00N 56°31' E 020°46'0 0.0
2018-Jun-15 13:12N 56°31' E 020°46'0 0.0
2018-Jun-15 13:00N 56°31' E 020°46'0 0.0
2018-Jun-15 12:30N 56°31' E 020°46'0 0.0
2018-Jun-15 10:06N 56°31' E 020°46'0 0.0
2018-Jun-15 09:45N 56°31' E 020°46'92 2.7
2018-Jun-13 23:30N 55°07' E 019°40'1712.3
2018-Jun-13 22:08N 54°51' E 019°38'212.9
2018-Jun-13 21:58N 54°48' E 019°38'4 5.1
2018-Jun-13 21:11N 54°45' E 019°33'0 0.5
2018-Jun-13 20:59N 54°45' E 019°33'0 0.4
2018-Jun-13 20:30N 54°45' E 019°33'0 0.4
2018-Jun-13 20:01N 54°45' E 019°32'1 1.5
2018-Jun-13 19:30N 54°45' E 019°31'2 4.4
2018-Jun-13 19:01N 54°46' E 019°28'3 5.0
2018-Jun-13 18:30N 54°48' E 019°24'2 4.3
2018-Jun-13 18:00N 54°49' E 019°21'2 4.7
2018-Jun-13 17:30N 54°48' E 019°25'3 5.7
2018-Jun-13 17:00N 54°47' E 019°29'3 5.6
2018-Jun-13 16:30N 54°44' E 019°32'1 1.7
2018-Jun-13 15:56N 54°44' E 019°33'0 0.5
2018-Jun-13 15:29N 54°45' E 019°33'0 0.5
2018-Jun-13 15:00N 54°45' E 019°33'0 0.9
2018-Jun-13 14:30N 54°45' E 019°34'2 3.5
2018-Jun-13 14:00N 54°45' E 019°37'3 7.0
2018-Jun-13 13:30N 54°43' E 019°42'610.9
2018-Jun-13 13:00N 54°40' E 019°50'3 6.8
2018-Jun-13 12:30N 54°38' E 019°55'3 6.1
2018-Jun-13 11:59N 54°38' E 020°01'7 5.9
2018-Jun-13 10:45N 54°41' E 020°12'0 0.4
2018-Jun-13 10:28N 54°41' E 020°12'0 0.0
2018-Jun-11 18:10N 54°41' E 020°12'0 0.0
2018-Jun-11 05:16N 54°41' E 020°12'0 0.0
2018-Jun-11 04:58N 54°41' E 020°12'0 0.0
2018-Jun-11 04:28N 54°41' E 020°12'0 0.0
2018-Jun-11 03:37N 54°41' E 020°12'0 0.0
2018-Jun-11 03:10N 54°41' E 020°12'0 0.0
2018-Jun-11 02:43N 54°41' E 020°12'0 0.0
2018-Jun-11 02:28N 54°41' E 020°12'0 0.0
2018-Jun-11 01:58N 54°41' E 020°12'0 0.0
2018-Jun-11 01:25N 54°41' E 020°12'0 0.0
2018-Jun-11 00:22N 54°41' E 020°12'0 0.0
2018-Jun-10 23:58N 54°41' E 020°12'0 0.0
2018-Jun-10 23:19N 54°41' E 020°12'0 0.0
2018-Jun-10 22:58N 54°41' E 020°12'0 0.0
2018-Jun-10 20:10N 54°41' E 020°12'0 0.0
2018-Jun-10 19:58N 54°41' E 020°12'0 0.0
2018-Jun-10 19:28N 54°41' E 020°12'0 0.0
2018-Jun-10 18:52N 54°41' E 020°12'0 0.0
2018-Jun-10 18:28N 54°41' E 020°12'0 0.0
2018-Jun-10 17:58N 54°41' E 020°12'0 0.0
2018-Jun-10 17:28N 54°41' E 020°12'0 0.0
2018-Jun-10 16:55N 54°41' E 020°12'0 0.0
2018-Jun-10 16:28N 54°41' E 020°12'0 0.0
2018-Jun-10 15:58N 54°41' E 020°12'0 0.0
2018-Jun-10 11:01N 54°41' E 020°12'0 0.0
2018-Jun-10 10:49N 54°41' E 020°12'0 0.0
2018-Jun-10 10:22N 54°41' E 020°12'0 0.0
2018-Jun-10 09:58N 54°41' E 020°12'0 0.0
2018-Jun-10 09:25N 54°41' E 020°12'0 0.0
2018-Jun-10 08:55N 54°41' E 020°12'0 0.0
2018-Jun-10 08:28N 54°41' E 020°12'0 0.0
2018-Jun-10 07:58N 54°41' E 020°12'0 0.0
2018-Jun-10 06:16N 54°41' E 020°12'0 0.0
2018-Jun-10 05:58N 54°41' E 020°12'0 0.0
2018-Jun-10 05:22N 54°41' E 020°12'0 0.0
2018-Jun-10 04:58N 54°41' E 020°12'0 0.0
2018-Jun-10 04:28N 54°41' E 020°12'0 0.0
2018-Jun-10 03:52N 54°41' E 020°12'0 0.0
2018-Jun-10 02:13N 54°41' E 020°12'0 0.0
2018-Jun-10 01:58N 54°41' E 020°12'0 0.0
2018-Jun-10 01:25N 54°41' E 020°12'0 0.0
2018-Jun-10 00:52N 54°41' E 020°12'0 0.0
2018-Jun-10 00:28N 54°41' E 020°12'0 0.0
2018-Jun-09 23:58N 54°41' E 020°12'0 0.0
2018-Jun-09 23:25N 54°41' E 020°12'0 0.0
2018-Jun-09 22:58N 54°41' E 020°12'0 0.0
2018-Jun-09 22:28N 54°41' E 020°12'0 0.0
2018-Jun-09 21:58N 54°41' E 020°12'0 0.0
2018-Jun-09 21:28N 54°41' E 020°12'0 0.0
2018-Jun-09 20:58N 54°41' E 020°12'0 0.0
2018-Jun-09 20:28N 54°41' E 020°12'0 0.0
2018-Jun-09 19:37N 54°41' E 020°12'0 0.0
2018-Jun-09 19:22N 54°41' E 020°12'0 0.0
2018-Jun-09 17:16N 54°41' E 020°12'0 0.0
2018-Jun-09 16:19N 54°41' E 020°12'0 0.0
2018-Jun-09 15:58N 54°41' E 020°12'0 0.0
2018-Jun-09 14:22N 54°41' E 020°12'0 0.0
2018-Jun-09 13:58N 54°41' E 020°12'0 0.0
2018-Jun-09 13:28N 54°41' E 020°12'0 0.0
2018-Jun-09 12:52N 54°41' E 020°12'0 0.0
2018-Jun-09 12:25N 54°41' E 020°12'0 0.0
2018-Jun-09 11:58N 54°41' E 020°12'0 0.0
2018-Jun-09 11:28N 54°41' E 020°12'0 0.0
2018-Jun-09 10:52N 54°41' E 020°12'0 0.0
2018-Jun-09 10:28N 54°41' E 020°12'0 0.1
2018-Jun-09 09:58N 54°41' E 020°12'0 0.3
2018-Jun-09 09:28N 54°41' E 020°12'0 0.2
2018-Jun-09 08:58N 54°41' E 020°12'0 0.0
2018-Jun-09 08:22N 54°41' E 020°12'0 0.0
2018-Jun-09 07:58N 54°41' E 020°12'0 0.0
2018-Jun-09 07:25N 54°41' E 020°12'0 0.0
2018-Jun-09 06:58N 54°41' E 020°12'0 0.0
2018-Jun-09 06:28N 54°41' E 020°12'0 0.0
2018-Jun-09 05:58N 54°41' E 020°12'0 0.0
2018-Jun-09 05:28N 54°41' E 020°12'0 0.0
2018-Jun-09 04:58N 54°41' E 020°12'0 0.0
2018-Jun-09 04:28N 54°41' E 020°12'0 0.0
2018-Jun-09 03:58N 54°41' E 020°12'0 0.0
2018-Jun-09 03:28N 54°41' E 020°12'0 0.0
2018-Jun-09 02:58N 54°41' E 020°12'0 0.0
2018-Jun-09 02:28N 54°41' E 020°12'0 0.0
2018-Jun-09 01:55N 54°41' E 020°12'0 0.0
2018-Jun-09 01:28N 54°41' E 020°12'0 0.0
2018-Jun-09 00:58N 54°41' E 020°12'0 0.0
2018-Jun-09 00:25N 54°41' E 020°12'0 0.0
2018-Jun-08 23:58N 54°41' E 020°12'0 0.0
2018-Jun-08 23:28N 54°41' E 020°12'0 0.0
2018-Jun-08 21:37N 54°41' E 020°12'0 0.0
2018-Jun-08 21:28N 54°41' E 020°12'0 0.0
2018-Jun-08 20:49N 54°41' E 020°12'0 0.0
2018-Jun-08 20:28N 54°41' E 020°12'0 0.0
2018-Jun-08 19:52N 54°41' E 020°12'0 0.0
2018-Jun-08 19:28N 54°41' E 020°12'0 0.0
2018-Jun-08 18:55N 54°41' E 020°12'0 0.0
2018-Jun-08 18:28N 54°41' E 020°12'0 0.0
2018-Jun-08 17:37N 54°41' E 020°12'0 0.0
2018-Jun-08 17:10N 54°41' E 020°12'0 0.0
2018-Jun-08 16:52N 54°41' E 020°12'0 0.0
2018-Jun-08 16:07N 54°41' E 020°12'0 0.0
2018-Jun-08 06:49N 54°41' E 020°12'0 0.0
2018-Jun-08 06:28N 54°41' E 020°12'0 0.0
2018-Jun-08 05:58N 54°41' E 020°12'0 0.0
2018-Jun-08 05:28N 54°41' E 020°12'0 0.0
2018-Jun-08 04:58N 54°41' E 020°12'0 0.0
2018-Jun-08 04:28N 54°41' E 020°12'0 0.0
2018-Jun-08 03:58N 54°41' E 020°12'0 0.0
2018-Jun-08 03:28N 54°41' E 020°12'0 0.0
2018-Jun-08 02:55N 54°41' E 020°12'0 0.0
2018-Jun-08 02:28N 54°41' E 020°12'0 0.0
2018-Jun-08 01:55N 54°41' E 020°12'0 0.0
2018-Jun-08 01:28N 54°41' E 020°12'  

Dump ship's entire track history